Nearby METAR Reports

 

EGMC - Southend-On-Sea, United Kingdom
Distance from station: NE 10km
Updated: 22/11/2017 10:50
Few Clouds
Few Clouds
 Wind from SSW
Wind: SSW 25 mph , 41 km/h
Temperature: 16°C
Dew Point: 9°C
Humidity: 63%
Barometer: 1000 hPa
Clouds: Few Clouds
Visibility: 6 miles , 10 km
Cloud details: Few Clouds 610 m
2017/11/22 10:50 EGMC 221050Z 21022KT 9999 FEW020 16/09 Q1000
EGLC - London City Airp, United Kingdom
Distance from station: W 37km
Updated: 22/11/2017 10:50
Few Clouds
Few Clouds
 Wind from SSW
Wind: SSW 21 mph , 33 km/h, Gust: 33 mph , 54 km/h
Temperature: 15°C
Dew Point: 8°C
Humidity: 63%
Barometer: 1000 hPa
Clouds: Few Clouds
Visibility: 6 miles , 10 km
Cloud details: Few Clouds 975 m
2017/11/22 10:50 EGLC 221050Z AUTO 21018G29KT 170V240 9999 FEW032 15/08 Q1000
EGKB - Biggin Hill, United Kingdom
Distance from station: WSW 45km
Updated: 22/11/2017 10:50
Partly cloudy
Partly cloudy
 Wind from SSW
Wind: SSW 23 mph , 37 km/h
Temperature: 13°C
Dew Point: 9°C
Humidity: 77%
Barometer: 1000 hPa
Clouds: Partly cloudy
Visibility: 6 miles , 10 km
Cloud details: Partly cloudy 671 m
2017/11/22 10:50 EGKB 221050Z 21020KT 9999 SCT022 13/09 Q1000
 
EGSS - Stansted Airport, United Kingdom
Distance from station: NNW 48km
Updated: 22/11/2017 10:50
Mostly cloudy
Mostly cloudy
 Wind from SSW
Wind: SSW 25 mph , 41 km/h
Temperature: 14°C
Dew Point: 10°C
Humidity: 77%
Barometer: 999 hPa
Clouds: Mostly cloudy
Visibility: 6 miles , 10 km
Cloud details: Mostly cloudy 1372 m
2017/11/22 10:50 EGSS 221050Z AUTO 21022KT 9999 BKN045 14/10 Q0999
EGKK - London/Gatwick A, United Kingdom
Distance from station: SW 67km
Updated: 22/11/2017 10:50
Few Clouds
Few Clouds
 Wind from SSW
Wind: SSW 16 mph , 26 km/h
Temperature: 14°C
Dew Point: 9°C
Humidity: 72%
Barometer: 1001 hPa
Clouds: Few Clouds
Visibility: 6 miles , 10 km
Cloud details: Few Clouds 792 m
2017/11/22 10:50 EGKK 221050Z 21014KT 170V240 9999 FEW026 14/09 Q1001
EGMD - Lydd Airport, United Kingdom
Distance from station: SSE 67km
Updated: 22/11/2017 10:50
Few Clouds
Few Clouds
 Wind from SSW
Wind: SSW 29 mph , 46 km/h
Temperature: 14°C
Dew Point: 10°C
Humidity: 77%
Barometer: 1003 hPa
Clouds: Few Clouds
Visibility: 6 miles , 10 km
Cloud details: Few Clouds 579 m
2017/11/22 10:50 EGMD 221050Z 21025KT 9999 FEW019 14/10 Q1003
 
EGWU - Northolt Raf, United Kingdom
Distance from station: W 69km
Updated: 22/11/2017 10:50
Mostly cloudy
Mostly cloudy
 Wind from SSW
Wind: SSW 18 mph , 30 km/h, Gust: 30 mph , 48 km/h
Temperature: 14°C
Dew Point: 9°C
Humidity: 72%
Barometer: 999 hPa
Clouds: Mostly cloudy
Visibility: 6 miles , 10 km
Cloud details: Mostly cloudy 732 m
Mostly cloudy 1524 m
2017/11/22 10:50 EGWU 221050Z 21016G26KT 9999 BKN024 BKN050 14/09 Q0999 NOSIG
EGLL - London/Heathrow, United Kingdom
Distance from station: W 72km
Updated: 22/11/2017 10:50
Mostly cloudy
Mostly cloudy
 Wind from SSW
Wind: SSW 18 mph , 30 km/h, Gust: 30 mph , 48 km/h
Temperature: 15°C
Dew Point: 9°C
Humidity: 68%
Barometer: 1000 hPa
Clouds: Mostly cloudy
Visibility: 6 miles , 10 km
Cloud details: Mostly cloudy 732 m
2017/11/22 10:50 EGLL 221050Z AUTO 21016G26KT 9999 BKN024 15/09 Q1000
EGUW - Wattisham Raf, United Kingdom
Distance from station: NNE 72km
Updated: 22/11/2017 10:50
Mostly cloudy
Mostly cloudy
 Wind from SW
Wind: SW 22 mph , 35 km/h
Temperature: 15°C
Dew Point: 9°C
Humidity: 68%
Barometer: 998 hPa
Clouds: Mostly cloudy
Visibility: 6 miles , 10 km
Cloud details: Few Clouds 792 m
Mostly cloudy 6096 m
2017/11/22 10:50 EGUW 221050Z 22019KT 9999 FEW026 BKN200 15/09 Q0998 BLU NOSIG
 
EGGW - Luton Airport, United Kingdom
Distance from station: WNW 76km
Updated: 22/11/2017 10:50
Overcast
Overcast
 Wind from SSW
Wind: SSW 21 mph , 33 km/h
Temperature: 13°C
Dew Point: 10°C
Humidity: 82%
Barometer: 998 hPa
Clouds: Overcast
Visibility: 6 miles , 10 km
Cloud details: Mostly cloudy 579 m
Overcast 1311 m
2017/11/22 10:50 EGGW 221050Z AUTO 20018KT 9999 BKN019 OVC043 13/10 Q0998
EGSC - Cambridge, United Kingdom
Distance from station: NNW 81km
Updated: 22/11/2017 10:50
Few Clouds
Few Clouds
 Wind from SSW
Wind: SSW 20 mph , 31 km/h
Temperature: 15°C
Dew Point: 10°C
Humidity: 72%
Barometer: 997 hPa
Clouds: Few Clouds
Visibility: 6 miles , 10 km
Cloud details: Few Clouds 701 m
2017/11/22 10:50 EGSC 221050Z 21017KT 9999 FEW023 15/10 Q0997